createdAt,value
2019-02-18T00:00:47.430Z,4.60
2019-02-18T00:01:47.426Z,4.80
2019-02-18T00:02:47.416Z,4.20
2019-02-18T00:03:47.406Z,4.70
2019-02-18T00:04:47.399Z,4.20
2019-02-18T00:05:47.392Z,3.30
2019-02-18T00:06:47.385Z,4.20
2019-02-18T00:07:47.378Z,4.00
2019-02-18T00:08:47.369Z,3.90
2019-02-18T00:09:47.362Z,4.70
2019-02-18T00:10:47.354Z,3.60
2019-02-18T00:11:47.346Z,4.20
2019-02-18T00:12:47.339Z,4.70
2019-02-18T00:13:47.332Z,4.20
2019-02-18T00:14:47.324Z,4.10
2019-02-18T00:15:47.316Z,4.00
2019-02-18T00:16:47.307Z,4.70
2019-02-18T00:17:47.302Z,5.30
2019-02-18T00:18:47.292Z,4.30
2019-02-18T00:19:47.286Z,4.10
2019-02-18T00:20:47.276Z,4.10
2019-02-18T00:21:47.270Z,4.30
2019-02-18T00:22:47.266Z,5.40
2019-02-18T00:23:47.254Z,3.90
2019-02-18T00:24:47.246Z,3.60
2019-02-18T00:25:47.239Z,3.80
2019-02-18T00:26:47.230Z,4.60
2019-02-18T00:27:47.225Z,4.70
2019-02-18T00:28:47.217Z,3.90
2019-02-18T00:29:47.207Z,3.80
2019-02-18T00:30:47.203Z,4.10
2019-02-18T00:31:47.194Z,3.80
2019-02-18T00:32:47.184Z,4.00
2019-02-18T00:33:47.177Z,3.90
2019-02-18T00:34:47.169Z,3.40
2019-02-18T00:35:47.162Z,3.80
2019-02-18T00:36:47.156Z,4.30
2019-02-18T00:37:47.147Z,3.80
2019-02-18T00:38:47.139Z,4.10
2019-02-18T00:39:47.133Z,4.10
2019-02-18T00:40:47.124Z,3.80
2019-02-18T00:41:49.206Z,3.70
2019-02-18T00:42:47.111Z,3.80
2019-02-18T00:43:47.101Z,4.30
2019-02-18T00:44:47.095Z,4.20
2019-02-18T00:45:47.084Z,3.90
2019-02-18T00:46:47.076Z,3.90
2019-02-18T00:47:48.111Z,4.50
2019-02-18T00:48:47.061Z,4.00
2019-02-18T00:49:47.053Z,4.20
2019-02-18T00:50:47.052Z,4.30
2019-02-18T00:51:47.036Z,3.90
2019-02-18T00:52:47.030Z,3.80
2019-02-18T00:53:47.021Z,3.50
2019-02-18T00:54:47.014Z,4.20
2019-02-18T00:55:47.007Z,4.30
2019-02-18T00:56:46.997Z,4.30
2019-02-18T00:57:46.995Z,3.60
2019-02-18T00:58:46.983Z,4.40
2019-02-18T00:59:46.975Z,4.50
2019-02-18T01:00:46.969Z,3.60
2019-02-18T01:01:46.958Z,4.10
2019-02-18T01:02:46.950Z,4.40
2019-02-18T01:03:46.943Z,4.30
2019-02-18T01:04:46.933Z,3.90
2019-02-18T01:05:46.927Z,3.80
2019-02-18T01:06:46.920Z,3.90
2019-02-18T01:07:46.911Z,4.00
2019-02-18T01:08:46.903Z,4.00
2019-02-18T01:09:46.896Z,3.30
2019-02-18T01:10:46.889Z,4.00
2019-02-18T01:11:46.879Z,4.10
2019-02-18T01:12:46.871Z,3.60
2019-02-18T01:13:46.864Z,3.90
2019-02-18T01:14:46.856Z,3.90
2019-02-18T01:15:46.849Z,3.70
2019-02-18T01:16:46.847Z,3.60
2019-02-18T01:17:46.832Z,3.60
2019-02-18T01:18:46.824Z,4.30
2019-02-18T01:19:46.816Z,3.80
2019-02-18T01:20:46.807Z,3.80
2019-02-18T01:21:46.801Z,4.10
2019-02-18T01:22:46.792Z,5.10
2019-02-18T01:23:46.785Z,4.00
2019-02-18T01:24:46.777Z,4.80
2019-02-18T01:25:46.770Z,4.50
2019-02-18T01:26:46.760Z,3.10
2019-02-18T01:27:46.753Z,3.90
2019-02-18T01:28:46.747Z,4.50
2019-02-18T01:29:46.737Z,4.10
2019-02-18T01:30:46.733Z,3.60
2019-02-18T01:31:46.721Z,4.00
2019-02-18T01:32:46.715Z,4.20
2019-02-18T01:33:46.710Z,3.60
2019-02-18T01:34:46.702Z,3.60
2019-02-18T01:35:46.696Z,3.90
2019-02-18T01:36:46.681Z,3.70
2019-02-18T01:37:46.672Z,3.80
2019-02-18T01:38:46.667Z,3.90
2019-02-18T01:39:46.670Z,4.00
2019-02-18T01:40:46.652Z,3.60
2019-02-18T01:41:46.641Z,3.60
2019-02-18T01:42:46.633Z,3.20
2019-02-18T01:43:46.625Z,3.80
2019-02-18T01:44:46.616Z,4.10
2019-02-18T01:45:46.610Z,3.70
2019-02-18T01:46:46.601Z,3.30
2019-02-18T01:47:46.593Z,4.30
2019-02-18T01:48:46.586Z,3.50
2019-02-18T01:49:46.576Z,3.70
2019-02-18T01:50:46.569Z,3.20
2019-02-18T01:51:46.562Z,3.70
2019-02-18T01:52:46.552Z,4.30
2019-02-18T01:53:46.544Z,3.60
2019-02-18T01:54:46.537Z,4.00
2019-02-18T01:55:46.529Z,4.60
2019-02-18T01:56:46.520Z,3.90
2019-02-18T01:57:46.514Z,3.40
2019-02-18T01:58:46.504Z,4.70
2019-02-18T01:59:46.498Z,4.30
2019-02-18T02:00:46.488Z,3.80
2019-02-18T02:01:46.480Z,3.30
2019-02-18T02:02:46.474Z,3.30
2019-02-18T02:03:46.468Z,4.00
2019-02-18T02:04:46.457Z,3.50
2019-02-18T02:05:46.449Z,3.30
2019-02-18T02:06:46.445Z,3.50
2019-02-18T02:07:55.384Z,4.60
2019-02-18T02:08:46.424Z,4.30
2019-02-18T02:09:46.416Z,4.20
2019-02-18T02:10:46.409Z,4.10
2019-02-18T02:11:46.473Z,4.00
2019-02-18T02:12:46.395Z,3.90
2019-02-18T02:13:46.387Z,3.80
2019-02-18T02:14:46.380Z,4.50
2019-02-18T02:15:46.369Z,4.40
2019-02-18T02:16:46.359Z,4.10
2019-02-18T02:17:46.354Z,3.80
2019-02-18T02:18:46.345Z,3.90
2019-02-18T02:19:46.338Z,3.50
2019-02-18T02:20:46.329Z,3.70
2019-02-18T02:21:46.321Z,4.60
2019-02-18T02:22:46.312Z,4.20
2019-02-18T02:23:46.311Z,3.80
2019-02-18T02:24:46.295Z,4.20
2019-02-18T02:25:46.317Z,3.80
2019-02-18T02:26:46.283Z,3.60
2019-02-18T02:27:46.272Z,3.20
2019-02-18T02:28:46.269Z,3.90
2019-02-18T02:29:46.255Z,4.30
2019-02-18T02:30:46.257Z,4.10
2019-02-18T02:31:46.246Z,4.30
2019-02-18T02:32:46.235Z,4.20
2019-02-18T02:33:46.224Z,3.90
2019-02-18T02:34:46.215Z,3.50
2019-02-18T02:35:46.207Z,4.40
2019-02-18T02:36:46.200Z,3.70
2019-02-18T02:37:46.191Z,3.70
2019-02-18T02:38:46.185Z,3.70
2019-02-18T02:39:46.176Z,4.30
2019-02-18T02:40:46.172Z,3.80
2019-02-18T02:41:46.163Z,3.60
2019-02-18T02:42:46.151Z,4.60
2019-02-18T02:43:46.144Z,4.00
2019-02-18T02:44:46.136Z,3.90
2019-02-18T02:45:46.127Z,4.00
2019-02-18T02:46:46.118Z,4.20
2019-02-18T02:47:46.111Z,3.00
2019-02-18T02:48:46.102Z,4.80
2019-02-18T02:49:46.099Z,3.40
2019-02-18T02:50:46.086Z,4.60
2019-02-18T02:51:46.081Z,4.60
2019-02-18T02:52:46.070Z,3.80
2019-02-18T02:53:46.062Z,4.10
2019-02-18T02:54:46.055Z,4.00
2019-02-18T02:55:46.050Z,3.80
2019-02-18T02:56:46.038Z,4.10
2019-02-18T02:57:46.030Z,3.30
2019-02-18T02:58:46.021Z,4.30
2019-02-18T02:59:46.015Z,4.20
2019-02-18T03:00:46.008Z,3.50
2019-02-18T03:01:46.006Z,4.10
2019-02-18T03:02:45.990Z,4.50
2019-02-18T03:03:45.982Z,3.90
2019-02-18T03:04:45.974Z,3.40
2019-02-18T03:05:45.965Z,4.60
2019-02-18T03:06:45.956Z,4.20
2019-02-18T03:07:45.951Z,4.30
2019-02-18T03:08:45.940Z,4.20
2019-02-18T03:09:45.946Z,3.60
2019-02-18T03:10:45.926Z,3.40
2019-02-18T03:11:45.920Z,3.70
2019-02-18T03:12:45.978Z,3.70
2019-02-18T03:13:45.900Z,3.50
2019-02-18T03:14:45.893Z,3.70
2019-02-18T03:15:45.887Z,3.30
2019-02-18T03:16:45.877Z,3.30
2019-02-18T03:17:45.869Z,3.30
2019-02-18T03:18:45.864Z,4.60
2019-02-18T03:19:45.852Z,3.70
2019-02-18T03:20:45.844Z,3.80
2019-02-18T03:21:45.837Z,4.40
2019-02-18T03:22:45.829Z,3.60
2019-02-18T03:23:45.820Z,3.40
2019-02-18T03:24:45.813Z,3.30
2019-02-18T03:25:45.805Z,3.80
2019-02-18T03:26:45.797Z,4.00
2019-02-18T03:27:45.794Z,3.90
2019-02-18T03:28:45.780Z,3.40
2019-02-18T03:29:45.772Z,3.60
2019-02-18T03:30:45.765Z,4.90
2019-02-18T03:31:45.756Z,3.20
2019-02-18T03:32:45.749Z,3.50
2019-02-18T03:33:45.740Z,4.10
2019-02-18T03:34:45.732Z,3.50
2019-02-18T03:35:45.724Z,3.50
2019-02-18T03:36:45.715Z,3.70
2019-02-18T03:37:45.705Z,4.30
2019-02-18T03:38:45.703Z,3.80
2019-02-18T03:39:45.690Z,3.10
2019-02-18T03:40:45.685Z,3.20
2019-02-18T03:41:45.681Z,4.50
2019-02-18T03:42:45.665Z,3.60
2019-02-18T03:43:45.659Z,3.70
2019-02-18T03:44:45.650Z,2.70
2019-02-18T03:45:45.641Z,3.70
2019-02-18T03:46:45.636Z,2.90
2019-02-18T03:47:45.628Z,3.30
2019-02-18T03:48:45.617Z,3.50
2019-02-18T03:49:45.610Z,3.40
2019-02-18T03:50:45.602Z,3.70
2019-02-18T03:51:45.592Z,4.20
2019-02-18T03:52:45.585Z,3.50
2019-02-18T03:53:45.577Z,3.70
2019-02-18T03:54:45.568Z,3.20
2019-02-18T03:55:45.560Z,3.50
2019-02-18T03:56:45.552Z,2.60
2019-02-18T03:57:45.544Z,3.20
2019-02-18T03:58:45.536Z,4.60
2019-02-18T03:59:45.529Z,3.30
2019-02-18T04:00:45.519Z,4.20
2019-02-18T04:01:45.510Z,3.80
2019-02-18T04:02:45.502Z,4.50
2019-02-18T04:03:45.494Z,3.30
2019-02-18T04:04:45.486Z,3.40
2019-02-18T04:05:45.477Z,3.20
2019-02-18T04:06:45.473Z,3.70
2019-02-18T04:07:45.463Z,3.50
2019-02-18T04:08:45.457Z,3.60
2019-02-18T04:09:45.449Z,3.60
2019-02-18T04:10:45.438Z,3.60
2019-02-18T04:11:45.429Z,3.20
2019-02-18T04:12:45.430Z,4.00
2019-02-18T04:13:45.413Z,3.50
2019-02-18T04:14:45.404Z,3.80
2019-02-18T04:15:45.396Z,3.10
2019-02-18T04:16:45.386Z,3.80
2019-02-18T04:17:45.378Z,3.80
2019-02-18T04:18:45.371Z,3.60
2019-02-18T04:19:45.364Z,4.30
2019-02-18T04:20:45.358Z,3.50
2019-02-18T04:21:45.347Z,3.70
2019-02-18T04:22:45.407Z,3.10
2019-02-18T04:23:45.330Z,4.70
2019-02-18T04:24:45.324Z,3.60
2019-02-18T04:25:45.312Z,3.60
2019-02-18T04:26:45.304Z,4.10
2019-02-18T04:27:45.299Z,3.70
2019-02-18T04:28:45.287Z,3.60
2019-02-18T04:29:45.278Z,3.80
2019-02-18T04:30:45.270Z,3.60
2019-02-18T04:31:45.262Z,3.40
2019-02-18T04:32:45.254Z,3.20
2019-02-18T04:33:45.246Z,3.60
2019-02-18T04:34:45.238Z,3.30
2019-02-18T04:35:45.229Z,3.50
2019-02-18T04:36:45.220Z,4.10
2019-02-18T04:37:45.211Z,3.30
2019-02-18T04:38:53.865Z,3.50
2019-02-18T04:39:45.195Z,3.70
2019-02-18T04:40:45.188Z,4.10
2019-02-18T04:41:45.177Z,3.50
2019-02-18T04:42:45.173Z,3.40
2019-02-18T04:43:45.166Z,4.30
2019-02-18T04:44:45.241Z,4.40
2019-02-18T04:45:45.148Z,3.90
2019-02-18T04:46:45.137Z,2.80
2019-02-18T04:47:45.135Z,3.70
2019-02-18T04:48:45.119Z,3.60
2019-02-18T04:49:45.112Z,4.30
2019-02-18T04:50:45.103Z,3.70
2019-02-18T04:51:45.095Z,4.10
2019-02-18T04:52:45.086Z,3.80
2019-02-18T04:53:45.080Z,3.70
2019-02-18T04:54:45.070Z,3.00
2019-02-18T04:55:45.062Z,3.30
2019-02-18T04:56:45.051Z,3.20
2019-02-18T04:57:45.044Z,4.00
2019-02-18T04:58:45.048Z,3.20
2019-02-18T04:59:45.031Z,4.00
2019-02-18T05:00:45.018Z,3.80
2019-02-18T05:01:45.011Z,3.40
2019-02-18T05:02:45.002Z,3.60
2019-02-18T05:03:44.995Z,3.40
2019-02-18T05:04:44.985Z,3.90
2019-02-18T05:05:44.984Z,3.90
2019-02-18T05:06:44.968Z,3.90
2019-02-18T05:07:44.960Z,3.80
2019-02-18T05:08:44.950Z,3.60
2019-02-18T05:09:44.943Z,3.70
2019-02-18T05:10:44.935Z,4.30
2019-02-18T05:11:44.926Z,4.10
2019-02-18T05:12:44.918Z,3.90
2019-02-18T05:13:45.917Z,3.30
2019-02-18T05:14:44.900Z,3.20
2019-02-18T05:15:44.892Z,3.10
2019-02-18T05:16:44.883Z,3.80
2019-02-18T05:17:44.875Z,3.50
2019-02-18T05:18:44.870Z,3.10
2019-02-18T05:19:44.858Z,4.10
2019-02-18T05:20:44.848Z,3.40
2019-02-18T05:21:44.840Z,3.30
2019-02-18T05:22:44.840Z,3.20
2019-02-18T05:23:44.827Z,3.00
2019-02-18T05:24:44.816Z,3.90
2019-02-18T05:25:44.808Z,3.30
2019-02-18T05:26:44.802Z,3.00
2019-02-18T05:27:44.790Z,3.20
2019-02-18T05:28:44.780Z,3.30
2019-02-18T05:29:44.773Z,3.90
2019-02-18T05:30:44.769Z,3.40
2019-02-18T05:31:44.755Z,3.20
2019-02-18T05:32:44.747Z,3.90
2019-02-18T05:33:44.739Z,3.00
2019-02-18T05:34:44.730Z,3.10
2019-02-18T05:35:44.721Z,3.80
2019-02-18T05:36:44.712Z,3.50
2019-02-18T05:37:44.706Z,3.40
2019-02-18T05:38:44.733Z,4.10
2019-02-18T05:39:44.686Z,3.70
2019-02-18T05:40:44.677Z,3.90
2019-02-18T05:41:44.671Z,4.10
2019-02-18T05:42:44.664Z,4.10
2019-02-18T05:43:44.653Z,5.40
2019-02-18T05:44:44.645Z,3.80
2019-02-18T05:45:44.635Z,4.00
2019-02-18T05:46:44.627Z,3.30
2019-02-18T05:47:44.618Z,3.40
2019-02-18T05:48:44.614Z,4.50
2019-02-18T05:49:44.604Z,3.80
2019-02-18T05:50:44.594Z,3.70
2019-02-18T05:51:44.583Z,3.00
2019-02-18T05:52:44.574Z,3.80
2019-02-18T05:53:44.567Z,3.20
2019-02-18T05:54:44.558Z,3.90
2019-02-18T05:55:44.551Z,3.50
2019-02-18T05:56:44.539Z,4.10
2019-02-18T05:57:44.531Z,3.30
2019-02-18T05:58:44.523Z,4.10
2019-02-18T05:59:44.518Z,3.80
2019-02-18T06:00:44.508Z,3.40
2019-02-18T06:01:44.498Z,3.40
2019-02-18T06:02:44.487Z,3.80
2019-02-18T06:03:44.480Z,3.00
2019-02-18T06:04:44.470Z,3.40
2019-02-18T06:05:44.474Z,3.40
2019-02-18T06:06:44.456Z,3.70
2019-02-18T06:07:44.468Z,3.30
2019-02-18T06:08:44.436Z,3.40
2019-02-18T06:09:44.428Z,3.90
2019-02-18T06:10:44.420Z,3.40
2019-02-18T06:11:44.412Z,3.70
2019-02-18T06:12:44.400Z,2.90
2019-02-18T06:13:44.393Z,4.30
2019-02-18T06:14:44.384Z,3.60
2019-02-18T06:15:44.379Z,4.30
2019-02-18T06:16:44.364Z,3.00
2019-02-18T06:17:44.358Z,3.70
2019-02-18T06:18:44.349Z,3.50
2019-02-18T06:19:44.342Z,3.50
2019-02-18T06:20:44.331Z,4.20
2019-02-18T06:21:44.324Z,3.50
2019-02-18T06:22:44.314Z,3.30
2019-02-18T06:23:44.306Z,4.20
2019-02-18T06:24:44.296Z,3.40
2019-02-18T06:25:44.296Z,3.70
2019-02-18T06:26:44.279Z,3.80
2019-02-18T06:27:44.271Z,3.50
2019-02-18T06:28:44.261Z,4.70
2019-02-18T06:29:44.252Z,4.10
2019-02-18T06:30:44.244Z,3.30
2019-02-18T06:31:44.236Z,4.00
2019-02-18T06:32:44.229Z,4.70
2019-02-18T06:33:44.222Z,4.60
2019-02-18T06:34:44.209Z,3.60
2019-02-18T06:35:44.205Z,4.30
2019-02-18T06:36:44.192Z,4.50
2019-02-18T06:37:44.184Z,3.90
2019-02-18T06:38:44.176Z,4.90
2019-02-18T06:39:44.165Z,4.00
2019-02-18T06:40:44.156Z,3.40
2019-02-18T06:41:44.148Z,3.50
2019-02-18T06:42:44.139Z,3.40
2019-02-18T06:43:44.143Z,3.80
2019-02-18T06:44:44.121Z,3.50
2019-02-18T06:45:44.113Z,3.60
2019-02-18T06:46:44.105Z,3.10
2019-02-18T06:47:44.095Z,3.70
2019-02-18T06:48:44.086Z,4.40
2019-02-18T06:49:44.081Z,4.10
2019-02-18T06:50:44.069Z,3.60
2019-02-18T06:51:44.064Z,3.30
2019-02-18T06:52:44.051Z,3.40
2019-02-18T06:53:44.043Z,3.70
2019-02-18T06:54:44.034Z,3.90
2019-02-18T06:55:44.025Z,4.60
2019-02-18T06:56:44.016Z,5.50
2019-02-18T06:57:44.055Z,5.70
2019-02-18T06:58:43.998Z,4.30
2019-02-18T06:59:43.991Z,4.70
2019-02-18T07:00:43.981Z,5.30
2019-02-18T07:01:43.973Z,4.60
2019-02-18T07:02:43.966Z,4.70
2019-02-18T07:03:43.956Z,4.20
2019-02-18T07:04:43.946Z,4.60
2019-02-18T07:05:43.938Z,4.40
2019-02-18T07:06:43.929Z,4.90
2019-02-18T07:07:43.920Z,5.40
2019-02-18T07:08:43.912Z,5.50
2019-02-18T07:09:50.843Z,4.60
2019-02-18T07:10:43.894Z,5.50
2019-02-18T07:11:43.887Z,4.00
2019-02-18T07:12:43.875Z,4.30
2019-02-18T07:13:43.867Z,4.60
2019-02-18T07:14:43.860Z,4.30
2019-02-18T07:15:43.854Z,4.50
2019-02-18T07:16:43.850Z,5.10
2019-02-18T07:17:43.832Z,3.80
2019-02-18T07:18:43.825Z,4.70
2019-02-18T07:19:43.815Z,4.80
2019-02-18T07:20:43.806Z,4.20
2019-02-18T07:21:43.798Z,4.30
2019-02-18T07:22:43.792Z,4.50
2019-02-18T07:23:43.783Z,4.60
2019-02-18T07:24:43.772Z,4.60
2019-02-18T07:25:43.764Z,4.30
2019-02-18T07:26:43.760Z,5.40
2019-02-18T07:27:43.749Z,4.60
2019-02-18T07:28:43.739Z,3.60
2019-02-18T07:29:43.729Z,4.60
2019-02-18T07:30:43.722Z,4.10
2019-02-18T07:31:43.713Z,3.70
2019-02-18T07:32:43.703Z,4.60
2019-02-18T07:33:43.696Z,4.40
2019-02-18T07:34:43.688Z,4.50
2019-02-18T07:35:43.680Z,4.50
2019-02-18T07:36:43.670Z,4.10
2019-02-18T07:37:43.662Z,3.90
2019-02-18T07:38:43.657Z,5.20
2019-02-18T07:39:43.646Z,3.90
2019-02-18T07:40:43.635Z,4.50
2019-02-18T07:41:43.628Z,4.90
2019-02-18T07:42:43.621Z,3.90
2019-02-18T07:43:43.613Z,4.40
2019-02-18T07:44:43.603Z,4.10
2019-02-18T07:45:43.595Z,4.00
2019-02-18T07:46:43.587Z,4.60
2019-02-18T07:47:43.579Z,4.30
2019-02-18T07:48:43.571Z,4.30
2019-02-18T07:49:43.561Z,5.20
2019-02-18T07:50:43.553Z,4.60
2019-02-18T07:51:43.545Z,5.20
2019-02-18T07:52:43.537Z,3.70
2019-02-18T07:53:43.528Z,5.00
2019-02-18T07:54:43.523Z,4.30
2019-02-18T07:55:43.513Z,4.30
2019-02-18T07:56:43.505Z,5.00
2019-02-18T07:57:43.498Z,3.90
2019-02-18T07:58:43.493Z,4.20
2019-02-18T07:59:43.481Z,4.50
2019-02-18T08:00:43.474Z,4.50
2019-02-18T08:01:43.464Z,4.00
2019-02-18T08:02:43.457Z,4.70
2019-02-18T08:03:43.450Z,4.80
2019-02-18T08:04:43.440Z,4.60
2019-02-18T08:05:43.432Z,4.50
2019-02-18T08:06:43.423Z,4.20
2019-02-18T08:07:43.415Z,4.40
2019-02-18T08:08:43.408Z,5.30
2019-02-18T08:09:43.400Z,4.70
2019-02-18T08:10:43.393Z,4.60
2019-02-18T08:11:43.386Z,4.70
2019-02-18T08:12:43.377Z,5.20
2019-02-18T08:13:43.369Z,4.40
2019-02-18T08:14:43.362Z,4.40
2019-02-18T08:15:43.353Z,5.10
2019-02-18T08:16:43.345Z,4.10
2019-02-18T08:17:43.337Z,5.00
2019-02-18T08:18:43.330Z,4.20
2019-02-18T08:19:43.322Z,4.80
2019-02-18T08:20:43.314Z,4.20
2019-02-18T08:21:43.307Z,4.40
2019-02-18T08:22:43.302Z,4.70
2019-02-18T08:23:43.291Z,5.00
2019-02-18T08:24:43.284Z,5.10
2019-02-18T08:25:43.282Z,5.60
2019-02-18T08:26:44.157Z,5.40
2019-02-18T08:27:43.262Z,5.00
2019-02-18T08:28:43.253Z,5.10
2019-02-18T08:29:43.247Z,5.60
2019-02-18T08:30:43.242Z,5.50
2019-02-18T08:31:43.233Z,5.80
2019-02-18T08:32:43.226Z,5.00
2019-02-18T08:33:43.218Z,5.10
2019-02-18T08:34:43.212Z,5.50
2019-02-18T08:35:43.206Z,5.30
2019-02-18T08:36:43.196Z,5.90
2019-02-18T08:37:43.189Z,5.30
2019-02-18T08:38:43.182Z,5.30
2019-02-18T08:39:43.174Z,5.30
2019-02-18T08:40:43.166Z,5.50
2019-02-18T08:41:43.162Z,5.00
2019-02-18T08:42:43.154Z,6.10
2019-02-18T08:43:43.159Z,5.90
2019-02-18T08:44:43.143Z,5.00
2019-02-18T08:45:43.138Z,5.10
2019-02-18T08:46:43.125Z,5.50
2019-02-18T08:47:43.118Z,5.70
2019-02-18T08:48:43.110Z,5.80
2019-02-18T08:49:43.104Z,5.30
2019-02-18T08:50:43.098Z,6.00
2019-02-18T08:51:43.092Z,5.40
2019-02-18T08:52:43.084Z,5.60
2019-02-18T08:53:43.076Z,4.90
2019-02-18T08:54:43.070Z,5.60
2019-02-18T08:55:43.065Z,5.00
2019-02-18T08:56:43.055Z,5.40
2019-02-18T08:57:43.049Z,5.40
2019-02-18T08:58:43.044Z,5.60
2019-02-18T08:59:43.035Z,5.60
2019-02-18T09:00:43.029Z,5.30
2019-02-18T09:01:43.026Z,6.00
2019-02-18T09:02:43.016Z,5.50
2019-02-18T09:03:43.018Z,5.30
2019-02-18T09:04:43.003Z,5.70
2019-02-18T09:05:42.996Z,5.70
2019-02-18T09:06:42.995Z,5.60
2019-02-18T09:07:42.984Z,5.10
2019-02-18T09:08:42.977Z,6.30
2019-02-18T09:09:42.971Z,5.90
2019-02-18T09:10:42.963Z,5.70
2019-02-18T09:11:42.957Z,6.40
2019-02-18T09:12:42.950Z,5.80
2019-02-18T09:13:42.944Z,6.30
2019-02-18T09:14:42.938Z,6.00
2019-02-18T09:15:42.931Z,5.90
2019-02-18T09:16:42.925Z,6.00
2019-02-18T09:17:42.929Z,5.80
2019-02-18T09:18:42.912Z,5.80
2019-02-18T09:19:42.907Z,5.90
2019-02-18T09:20:42.901Z,5.60
2019-02-18T09:21:42.894Z,5.60
2019-02-18T09:22:42.886Z,6.00
2019-02-18T09:23:42.891Z,5.80
2019-02-18T09:24:42.873Z,5.70
2019-02-18T09:25:43.509Z,5.50
2019-02-18T09:26:42.861Z,6.80
2019-02-18T09:27:42.855Z,6.10
2019-02-18T09:28:42.853Z,5.80
2019-02-18T09:29:42.843Z,5.30
2019-02-18T09:30:42.837Z,5.70
2019-02-18T09:31:43.036Z,5.00
2019-02-18T09:32:42.823Z,5.30
2019-02-18T09:33:42.818Z,5.00
2019-02-18T09:34:42.814Z,5.00
2019-02-18T09:35:42.806Z,5.90
2019-02-18T09:36:42.800Z,5.60
2019-02-18T09:37:42.794Z,5.30
2019-02-18T09:38:42.790Z,5.20
2019-02-18T09:39:42.783Z,5.40
2019-02-18T09:40:46.104Z,5.30
2019-02-18T09:41:42.772Z,4.80
2019-02-18T09:42:42.765Z,5.40
2019-02-18T09:43:42.760Z,5.30
2019-02-18T09:44:42.753Z,5.20
2019-02-18T09:45:42.747Z,5.50
2019-02-18T09:46:42.742Z,5.40
2019-02-18T09:47:42.736Z,4.90
2019-02-18T09:48:42.732Z,5.10
2019-02-18T09:49:42.725Z,5.50
2019-02-18T09:50:42.722Z,4.50
2019-02-18T09:51:42.715Z,5.40
2019-02-18T09:52:42.719Z,5.40
2019-02-18T09:53:42.705Z,5.80
2019-02-18T09:54:42.698Z,5.90
2019-02-18T09:55:42.694Z,6.00
2019-02-18T09:56:42.687Z,5.40
2019-02-18T09:57:42.684Z,4.90
2019-02-18T09:58:42.678Z,6.00
2019-02-18T09:59:42.670Z,5.50
2019-02-18T10:00:42.666Z,5.50
2019-02-18T10:01:43.221Z,5.60
2019-02-18T10:02:42.655Z,5.10
2019-02-18T10:03:42.656Z,5.30
2019-02-18T10:04:42.646Z,5.60
2019-02-18T10:05:42.641Z,6.00
2019-02-18T10:06:42.636Z,7.00
2019-02-18T10:07:42.632Z,6.20
2019-02-18T10:08:42.628Z,6.60
2019-02-18T10:09:42.626Z,6.70
2019-02-18T10:10:42.622Z,7.10
2019-02-18T10:11:42.623Z,6.10
2019-02-18T10:12:42.619Z,6.90
2019-02-18T10:13:42.617Z,6.10
2019-02-18T10:14:42.628Z,6.00
2019-02-18T10:15:42.615Z,6.00
2019-02-18T10:16:42.613Z,5.80
2019-02-18T10:17:42.614Z,6.10
2019-02-18T10:18:42.616Z,5.70
2019-02-18T10:19:43.154Z,5.90
2019-02-18T10:20:42.618Z,5.20
2019-02-18T10:21:42.619Z,5.70
2019-02-18T10:22:42.623Z,6.00
2019-02-18T10:23:42.624Z,5.20
2019-02-18T10:24:50.493Z,5.60
2019-02-18T10:25:42.628Z,5.30
2019-02-18T10:26:42.630Z,5.70
2019-02-18T10:27:42.633Z,5.40
2019-02-18T10:28:42.641Z,5.20
2019-02-18T10:29:42.649Z,5.90
2019-02-18T10:30:42.643Z,5.30
2019-02-18T10:31:42.648Z,5.50
2019-02-18T10:32:42.652Z,4.80
2019-02-18T10:33:42.658Z,5.80
2019-02-18T10:34:42.659Z,6.60
2019-02-18T10:35:42.665Z,5.40
2019-02-18T10:36:42.668Z,5.30
2019-02-18T10:37:42.677Z,5.10
2019-02-18T10:38:42.685Z,5.80
2019-02-18T10:39:42.684Z,4.90
2019-02-18T10:40:42.689Z,5.10
2019-02-18T10:41:42.696Z,5.30
2019-02-18T10:42:42.701Z,4.60
2019-02-18T10:43:42.705Z,5.20
2019-02-18T10:44:42.713Z,5.80
2019-02-18T10:45:42.721Z,5.20
2019-02-18T10:46:42.724Z,5.90
2019-02-18T10:47:42.728Z,5.50
2019-02-18T10:48:42.736Z,5.10
2019-02-18T10:49:42.740Z,5.50
2019-02-18T10:50:42.745Z,4.80
2019-02-18T10:51:42.761Z,5.50
2019-02-18T10:52:42.769Z,5.30
2019-02-18T10:53:42.763Z,5.30
2019-02-18T10:54:42.769Z,5.20
2019-02-18T10:55:42.774Z,5.00
2019-02-18T10:56:42.780Z,5.10
2019-02-18T10:57:42.792Z,5.00
2019-02-18T10:58:42.792Z,4.80
2019-02-18T10:59:42.798Z,4.80
2019-02-18T11:00:42.837Z,5.80
2019-02-18T11:01:42.811Z,5.40
2019-02-18T11:02:42.816Z,5.20
2019-02-18T11:03:42.823Z,5.10
2019-02-18T11:04:42.826Z,5.50
2019-02-18T11:05:42.841Z,5.00
2019-02-18T11:06:42.841Z,5.40
2019-02-18T11:07:42.845Z,4.90
2019-02-18T11:08:42.849Z,5.10
2019-02-18T11:09:42.867Z,4.60
2019-02-18T11:10:42.861Z,5.20
2019-02-18T11:11:42.866Z,4.70
2019-02-18T11:12:42.869Z,5.10
2019-02-18T11:13:42.877Z,4.80
2019-02-18T11:14:42.879Z,5.20
2019-02-18T11:15:42.885Z,4.70
2019-02-18T11:16:42.891Z,4.70
2019-02-18T11:17:42.894Z,4.30
2019-02-18T11:18:42.902Z,4.70
2019-02-18T11:19:42.906Z,4.90
2019-02-18T11:20:42.915Z,5.20
2019-02-18T11:21:42.915Z,4.60
2019-02-18T11:22:42.918Z,5.20
2019-02-18T11:23:42.923Z,5.30
2019-02-18T11:24:42.929Z,4.90
2019-02-18T11:25:42.933Z,5.20
2019-02-18T11:26:42.939Z,4.40
2019-02-18T11:27:42.942Z,4.80
2019-02-18T11:28:42.949Z,4.80
2019-02-18T11:29:43.007Z,5.40
2019-02-18T11:30:42.953Z,4.90
2019-02-18T11:31:42.958Z,5.10
2019-02-18T11:32:42.960Z,4.70
2019-02-18T11:33:42.964Z,5.30
2019-02-18T11:34:42.968Z,5.60
2019-02-18T11:35:42.970Z,4.70
2019-02-18T11:36:42.975Z,5.40
2019-02-18T11:37:42.978Z,5.00
2019-02-18T11:38:42.981Z,5.70
2019-02-18T11:39:42.986Z,5.00
2019-02-18T11:40:42.987Z,4.90
2019-02-18T11:41:42.990Z,5.50
2019-02-18T11:42:42.998Z,5.50
2019-02-18T11:43:42.998Z,5.60
2019-02-18T11:44:43.002Z,5.00
2019-02-18T11:45:43.002Z,5.00
2019-02-18T11:46:43.006Z,5.20
2019-02-18T11:47:43.008Z,5.50
2019-02-18T11:48:43.011Z,5.30
2019-02-18T11:49:43.016Z,4.20
2019-02-18T11:50:43.017Z,5.50
2019-02-18T11:51:43.017Z,5.40
2019-02-18T11:52:43.021Z,5.20
2019-02-18T11:53:43.021Z,5.50
2019-02-18T11:54:43.023Z,6.20
2019-02-18T11:55:43.025Z,5.80
2019-02-18T11:56:43.027Z,4.90
2019-02-18T11:57:43.028Z,5.20
2019-02-18T11:58:43.031Z,5.50
2019-02-18T11:59:43.032Z,4.70
2019-02-18T12:00:43.034Z,5.60
2019-02-18T12:01:43.036Z,4.90
2019-02-18T12:02:43.036Z,4.90
2019-02-18T12:03:43.039Z,5.40
2019-02-18T12:04:43.038Z,5.10
2019-02-18T12:05:43.041Z,5.20
2019-02-18T12:06:44.535Z,5.00
2019-02-18T12:07:43.044Z,4.90
2019-02-18T12:08:43.044Z,5.30
2019-02-18T12:09:43.048Z,5.10
2019-02-18T12:10:43.046Z,4.90
2019-02-18T12:11:43.051Z,4.90
2019-02-18T12:12:43.048Z,5.30
2019-02-18T12:13:43.048Z,5.10
2019-02-18T12:14:43.048Z,5.70
2019-02-18T12:15:43.050Z,5.00
2019-02-18T12:16:43.049Z,4.90
2019-02-18T12:17:43.049Z,4.80
2019-02-18T12:18:43.051Z,4.40
2019-02-18T12:19:43.051Z,4.70
2019-02-18T12:20:43.050Z,5.00
2019-02-18T12:21:43.051Z,5.00
2019-02-18T12:22:43.056Z,5.50
2019-02-18T12:23:43.051Z,5.00
2019-02-18T12:24:43.052Z,4.50
2019-02-18T12:25:43.055Z,4.90
2019-02-18T12:26:43.052Z,4.70
2019-02-18T12:27:43.051Z,5.10
2019-02-18T12:28:45.099Z,4.60
2019-02-18T12:29:43.052Z,5.20
2019-02-18T12:30:43.051Z,5.20
2019-02-18T12:31:43.050Z,4.40
2019-02-18T12:32:43.050Z,5.00
2019-02-18T12:33:43.049Z,5.40
2019-02-18T12:34:43.049Z,5.30
2019-02-18T12:35:43.056Z,4.80
2019-02-18T12:36:43.052Z,4.70
2019-02-18T12:37:43.049Z,4.90
2019-02-18T12:38:43.049Z,5.40
2019-02-18T12:39:43.047Z,5.10
2019-02-18T12:40:43.049Z,5.70
2019-02-18T12:41:48.646Z,5.20
2019-02-18T12:42:43.051Z,4.90
2019-02-18T12:43:43.052Z,5.40
2019-02-18T12:44:43.045Z,5.90
2019-02-18T12:45:43.044Z,5.00
2019-02-18T12:46:43.043Z,5.30
2019-02-18T12:47:43.051Z,5.70
2019-02-18T12:48:43.042Z,5.10
2019-02-18T12:49:43.041Z,5.10
2019-02-18T12:50:43.040Z,5.60
2019-02-18T12:51:43.041Z,5.90
2019-02-18T12:52:43.040Z,5.40
2019-02-18T12:53:43.041Z,5.70
2019-02-18T12:54:43.037Z,6.50
2019-02-18T12:55:43.037Z,5.50
2019-02-18T12:56:43.038Z,5.60
2019-02-18T12:57:43.035Z,5.50
2019-02-18T12:58:43.036Z,5.40
2019-02-18T12:59:43.060Z,4.80
2019-02-18T13:00:43.034Z,5.60
2019-02-18T13:01:43.039Z,5.10
2019-02-18T13:02:44.728Z,4.70
2019-02-18T13:03:43.033Z,5.40
2019-02-18T13:04:43.032Z,4.70
2019-02-18T13:05:43.031Z,5.70
2019-02-18T13:06:43.032Z,5.20
2019-02-18T13:07:43.029Z,4.90
2019-02-18T13:08:43.033Z,5.80
2019-02-18T13:09:43.029Z,5.30
2019-02-18T13:10:43.027Z,5.00
2019-02-18T13:11:43.026Z,5.50
2019-02-18T13:12:43.026Z,5.00
2019-02-18T13:13:43.025Z,4.30
2019-02-18T13:14:43.024Z,5.40
2019-02-18T13:15:43.024Z,5.20
2019-02-18T13:16:43.021Z,5.00
2019-02-18T13:17:43.077Z,4.80
2019-02-18T13:18:43.024Z,4.70